Time;durP1;ratioP1;P1;durP2;ratioP2;P2;SDS_P1;SDS_P2;PMS_P1;PMS_P2;Temp;Humidity;BMP_temperature;BMP_pressure;BME280_temperature;BME280_humidity;BME280_pressure;Samples;Min_cycle;Max_cycle;Signal;HPM_P1;HPM_P2
2023/11/05 00:01:55;;;;;;;;;;;;;;;11.44;62.52;94733.75;5056275;28;19924;-83
2023/11/05 00:04:45;;;;;;;;;;;;;;;11.49;62.74;94736.06;5076087;28;19925;-83
2023/11/05 00:07:33;;;;;;;;;;;;;;;11.59;61.92;94750.03;5083166;28;19946;-82
2023/11/05 00:10:21;;;;;;;;;;;;;;;11.59;62.22;94744.59;5081566;28;19929;-83
2023/11/05 00:13:09;;;;;;;;;;;;;;;11.55;60.95;94736.44;5061281;28;19960;-83
2023/11/05 00:15:58;;;;;;;;;;;;;;;11.50;62.25;94734.13;5076465;28;19935;-83
2023/11/05 00:18:46;;;;;;;;;;;;;;;11.49;61.92;94730.63;5069844;28;19925;-83
2023/11/05 00:21:35;;;;;;;;;;;;;;;11.53;61.60;94711.59;5073646;28;19928;-83
2023/11/05 00:24:24;;;;;;;;;;;;;;;11.46;61.42;94711.66;5094410;28;19924;-83
2023/11/05 00:27:12;;;;;;;;;;;;;;;11.47;61.66;94705.03;5085579;28;19924;-83
2023/11/05 00:30:00;;;;;;;;;;;;;;;11.45;61.37;94710.88;5080775;28;19931;-83
2023/11/05 00:32:48;;;;;;;;;;;;;;;11.39;61.27;94723.31;5077427;28;20036;-83
2023/11/05 00:35:36;;;;;;;;;;;;;;;11.45;60.93;94726.38;5089978;28;19970;-82
2023/11/05 00:38:26;;;;;;;;;;;;;;;11.41;60.26;94720.22;5093116;28;19935;-83
2023/11/05 00:41:14;;;;;;;;;;;;;;;11.37;61.87;94722.16;5078598;28;19924;-83
2023/11/05 00:44:02;;;;;;;;;;;;;;;11.53;61.41;94701.50;5089608;28;20014;-83
2023/11/05 00:46:50;;;;;;;;;;;;;;;11.51;59.81;94709.28;5077852;28;20426;-83
2023/11/05 00:49:38;;;;;;;;;;;;;;;11.59;60.29;94704.59;5093130;28;19932;-83
2023/11/05 00:52:28;;;;;;;;;;;;;;;11.62;62.18;94709.25;5092136;28;19924;-83
2023/11/05 00:55:18;;;;;;;;;;;;;;;11.61;59.75;94701.47;5071470;28;19924;-83
2023/11/05 00:58:06;;;;;;;;;;;;;;;11.63;59.70;94708.06;5092272;28;19924;-82
2023/11/05 01:00:54;;;;;;;;;;;;;;;11.64;60.02;94700.69;5092437;28;19924;-83
2023/11/05 01:03:42;;;;;;;;;;;;;;;11.59;59.28;94699.16;5093110;28;19924;-83
2023/11/05 01:06:30;;;;;;;;;;;;;;;11.66;59.83;94688.22;5069016;28;19936;-83
2023/11/05 01:09:19;;;;;;;;;;;;;;;11.63;58.73;94694.47;5091676;28;19936;-83
2023/11/05 01:12:08;;;;;;;;;;;;;;;11.64;58.78;94690.56;5078541;28;19923;-84
2023/11/05 01:14:57;;;;;;;;;;;;;;;11.67;59.18;94678.16;5088773;28;19954;-83
2023/11/05 01:17:45;;;;;;;;;;;;;;;11.58;59.69;94681.28;5092380;28;19924;-83
2023/11/05 01:20:33;;;;;;;;;;;;;;;11.58;60.14;94672.38;5086171;28;19959;-83
2023/11/05 01:23:22;;;;;;;;;;;;;;;11.61;59.40;94683.22;5083085;28;19924;-83
2023/11/05 01:26:10;;;;;;;;;;;;;;;11.48;59.36;94673.97;5086947;28;20007;-83
2023/11/05 01:29:00;;;;;;;;;;;;;;;11.46;59.45;94674.38;5079973;28;19925;-83
2023/11/05 01:31:49;;;;;;;;;;;;;;;11.48;59.47;94666.56;5090382;28;19947;-83
2023/11/05 01:34:37;;;;;;;;;;;;;;;11.53;59.52;94668.09;5072775;28;20088;-83
2023/11/05 01:37:25;;;;;;;;;;;;;;;11.44;59.77;94659.59;5071696;28;19932;-84
2023/11/05 01:40:14;;;;;;;;;;;;;;;11.44;59.33;94660.38;5083078;28;19947;-83
2023/11/05 01:43:02;;;;;;;;;;;;;;;11.35;60.39;94662.00;5078394;28;20004;-83
2023/11/05 01:45:51;;;;;;;;;;;;;;;11.37;60.38;94656.94;5082908;28;19929;-84
2023/11/05 01:48:40;;;;;;;;;;;;;;;11.44;60.41;94660.38;5068555;28;19928;-83
2023/11/05 01:51:28;;;;;;;;;;;;;;;11.39;60.52;94663.50;5071122;28;20429;-84
2023/11/05 01:54:16;;;;;;;;;;;;;;;10.99;61.21;94643.88;5071077;28;19975;-83
2023/11/05 01:57:05;;;;;;;;;;;;;;;11.17;61.08;94641.09;5072328;28;19930;-83
2023/11/05 01:59:53;;;;;;;;;;;;;;;11.14;61.21;94636.47;5077843;28;19924;-83
2023/11/05 02:02:42;;;;;;;;;;;;;;;11.05;60.60;94619.78;5078227;28;19970;-83
2023/11/05 02:05:31;;;;;;;;;;;;;;;11.16;60.60;94604.22;5070672;28;20453;-83
2023/11/05 02:08:19;;;;;;;;;;;;;;;11.24;60.98;94615.84;5077354;28;19928;-83
2023/11/05 02:11:08;;;;;;;;;;;;;;;11.22;61.29;94610.00;5073459;28;20023;-84
2023/11/05 02:13:57;;;;;;;;;;;;;;;11.30;60.20;94603.38;5065813;28;19933;-83
2023/11/05 02:16:44;;;;;;;;;;;;;;;11.30;60.10;94594.47;5065393;28;19924;-83
2023/11/05 02:19:34;;;;;;;;;;;;;;;11.17;60.84;94596.84;5070523;28;20372;-83
2023/11/05 02:22:22;;;;;;;;;;;;;;;11.18;60.43;94601.88;5082284;28;20291;-84
2023/11/05 02:25:18;;;;;;;;;;;;;;;11.16;59.87;94595.31;5076803;28;20441;-83
2023/11/05 02:28:06;;;;;;;;;;;;;;;11.26;61.49;94606.13;5087588;28;19931;-84
2023/11/05 02:30:55;;;;;;;;;;;;;;;10.99;60.38;94614.00;5077998;28;19935;-84
2023/11/05 02:33:44;;;;;;;;;;;;;;;11.27;59.89;94625.91;5069538;28;20061;-83
2023/11/05 02:36:32;;;;;;;;;;;;;;;11.17;59.76;94615.84;5081989;28;20302;-83
2023/11/05 02:39:20;;;;;;;;;;;;;;;11.33;59.39;94608.00;5073220;28;19953;-83
2023/11/05 02:42:09;;;;;;;;;;;;;;;11.30;60.12;94616.97;5085098;28;20033;-84
2023/11/05 02:44:57;;;;;;;;;;;;;;;11.36;59.79;94606.47;5078163;28;19966;-83
2023/11/05 02:47:47;;;;;;;;;;;;;;;11.37;59.41;94605.28;5079015;28;19924;-83
2023/11/05 02:50:35;;;;;;;;;;;;;;;11.31;59.03;94607.66;5087950;28;19924;-83
2023/11/05 02:53:23;;;;;;;;;;;;;;;11.31;59.54;94602.22;5081335;28;19924;-82
2023/11/05 02:56:12;;;;;;;;;;;;;;;11.27;58.58;94587.88;5074145;28;19928;-82
2023/11/05 02:59:01;;;;;;;;;;;;;;;11.46;60.05;94590.09;5085541;28;19924;-82
2023/11/05 03:01:49;;;;;;;;;;;;;;;11.37;58.33;94589.75;5092569;28;20441;-83
2023/11/05 03:04:38;;;;;;;;;;;;;;;11.45;59.11;94577.69;5070615;28;19924;-83
2023/11/05 03:07:26;;;;;;;;;;;;;;;11.42;58.62;94575.75;5094243;28;19928;-82
2023/11/05 03:10:14;;;;;;;;;;;;;;;11.43;58.67;94571.09;5086597;28;19980;-83
2023/11/05 03:13:03;;;;;;;;;;;;;;;11.35;59.02;94564.94;5067794;28;19930;-83
2023/11/05 03:15:53;;;;;;;;;;;;;;;11.32;58.33;94571.16;5067573;28;19971;-83
2023/11/05 03:18:41;;;;;;;;;;;;;;;11.23;58.62;94571.56;5089679;28;19980;-82
2023/11/05 03:21:31;;;;;;;;;;;;;;;11.19;59.55;94561.91;5087342;28;19928;-82
2023/11/05 03:24:20;;;;;;;;;;;;;;;11.19;58.89;94567.34;5085742;28;20062;-83
2023/11/05 03:27:08;;;;;;;;;;;;;;;11.26;59.99;94561.88;5079684;28;19924;-83
2023/11/05 03:29:59;;;;;;;;;;;;;;;11.18;59.27;94544.03;5074029;28;19931;-82
2023/11/05 03:32:48;;;;;;;;;;;;;;;11.18;59.67;94546.75;5071906;28;19930;-83
2023/11/05 03:35:36;;;;;;;;;;;;;;;11.13;59.41;94544.47;5071997;28;20365;-83
2023/11/05 03:38:25;;;;;;;;;;;;;;;11.26;60.09;94535.47;5087765;28;19954;-84
2023/11/05 03:41:13;;;;;;;;;;;;;;;11.17;59.30;94547.94;5066102;28;20397;-83
2023/11/05 03:44:01;;;;;;;;;;;;;;;11.29;59.34;94542.03;5087574;28;19938;-83
2023/11/05 03:46:49;;;;;;;;;;;;;;;11.24;59.02;94535.09;5088508;28;20003;-84
2023/11/05 03:49:39;;;;;;;;;;;;;;;11.16;59.84;94540.97;5078764;28;19924;-84
2023/11/05 03:52:27;;;;;;;;;;;;;;;11.13;59.00;94533.59;5088666;28;19949;-83
2023/11/05 03:55:15;;;;;;;;;;;;;;;11.23;58.89;94525.38;5068377;28;19928;-83
2023/11/05 03:58:03;;;;;;;;;;;;;;;11.30;59.37;94530.03;5086732;28;19978;-83
2023/11/05 04:00:51;;;;;;;;;;;;;;;11.23;58.97;94519.16;5088952;28;20008;-83
2023/11/05 04:03:41;;;;;;;;;;;;;;;11.21;59.37;94516.88;5076614;28;20401;-84
2023/11/05 04:06:32;;;;;;;;;;;;;;;11.36;58.53;94512.13;5090835;28;19931;-84
2023/11/05 04:09:20;;;;;;;;;;;;;;;11.13;58.87;94509.94;5077727;28;19924;-84
2023/11/05 04:12:08;;;;;;;;;;;;;;;11.20;59.62;94509.13;5091032;28;19932;-84
2023/11/05 04:14:56;;;;;;;;;;;;;;;11.22;59.11;94502.09;5079278;28;20372;-84
2023/11/05 04:17:44;;;;;;;;;;;;;;;11.19;59.91;94500.19;5091067;28;19930;-84
2023/11/05 04:20:32;;;;;;;;;;;;;;;11.23;60.24;94489.28;5092271;28;19924;-84
2023/11/05 04:23:22;;;;;;;;;;;;;;;11.27;60.00;94471.03;5091903;28;20299;-83
2023/11/05 04:26:11;;;;;;;;;;;;;;;11.35;59.96;94475.25;5093234;28;20378;-84
2023/11/05 04:29:00;;;;;;;;;;;;;;;11.38;59.31;94463.56;5079458;28;19932;-83
2023/11/05 04:31:48;;;;;;;;;;;;;;;11.42;59.36;94469.75;5090407;28;20007;-83
2023/11/05 04:34:37;;;;;;;;;;;;;;;11.43;58.18;94474.00;5070132;28;19924;-84
2023/11/05 04:37:26;;;;;;;;;;;;;;;11.45;59.09;94451.84;5087101;28;19927;-83
2023/11/05 04:40:15;;;;;;;;;;;;;;;11.42;58.58;94453.44;5083549;28;19927;-84
2023/11/05 04:43:04;;;;;;;;;;;;;;;11.31;59.35;94446.53;5076563;28;19932;-84
2023/11/05 04:45:52;;;;;;;;;;;;;;;11.42;58.97;94453.44;5086832;28;19969;-84
2023/11/05 04:48:40;;;;;;;;;;;;;;;11.50;58.60;94456.84;5091775;28;19959;-83
2023/11/05 04:51:29;;;;;;;;;;;;;;;11.53;58.07;94447.91;5071503;28;19930;-83
2023/11/05 04:54:17;;;;;;;;;;;;;;;11.66;57.75;94445.47;5078007;28;19929;-84
2023/11/05 04:57:06;;;;;;;;;;;;;;;11.60;57.70;94436.97;5080777;28;20402;-83
2023/11/05 04:59:54;;;;;;;;;;;;;;;11.59;58.13;94437.38;5090401;28;20014;-83
2023/11/05 05:02:43;;;;;;;;;;;;;;;11.64;57.38;94436.94;5091549;28;20379;-84
2023/11/05 05:05:31;;;;;;;;;;;;;;;11.58;57.42;94436.59;5087397;28;19924;-83
2023/11/05 05:08:19;;;;;;;;;;;;;;;11.75;57.40;94443.81;5070401;28;20276;-83
2023/11/05 05:11:09;;;;;;;;;;;;;;;11.77;57.37;94432.53;5091905;28;20380;-83
2023/11/05 05:13:59;;;;;;;;;;;;;;;11.93;57.89;94437.47;5091091;28;19924;-84
2023/11/05 05:16:47;;;;;;;;;;;;;;;11.83;56.78;94430.97;5072608;28;19924;-84
2023/11/05 05:19:35;;;;;;;;;;;;;;;11.96;56.31;94444.81;5079351;28;20371;-84
2023/11/05 05:22:23;;;;;;;;;;;;;;;11.93;56.20;94440.97;5086275;28;19924;-84
2023/11/05 05:25:12;;;;;;;;;;;;;;;12.05;56.23;94440.44;5093666;28;20391;-83
2023/11/05 05:28:01;;;;;;;;;;;;;;;11.99;55.52;94438.59;5092897;28;19924;-84
2023/11/05 05:30:51;;;;;;;;;;;;;;;11.97;55.68;94438.97;5080910;28;19924;-83
2023/11/05 05:33:39;;;;;;;;;;;;;;;12.07;54.89;94435.38;5093022;28;19924;-83
2023/11/05 05:36:27;;;;;;;;;;;;;;;12.24;55.40;94428.19;5084980;28;19970;-83
2023/11/05 05:39:15;;;;;;;;;;;;;;;12.14;54.18;94439.94;5078964;28;20011;-84
2023/11/05 05:42:04;;;;;;;;;;;;;;;12.09;54.54;94428.75;5093785;28;20009;-83
2023/11/05 05:44:52;;;;;;;;;;;;;;;12.07;54.86;94437.31;5078797;28;19924;-84
2023/11/05 05:47:42;;;;;;;;;;;;;;;12.08;54.85;94436.13;5092967;28;20386;-84
2023/11/05 05:50:32;;;;;;;;;;;;;;;12.03;54.95;94426.47;5089522;28;20269;-83
2023/11/05 05:53:20;;;;;;;;;;;;;;;12.26;54.24;94430.50;5079803;28;19971;-83
2023/11/05 05:56:09;;;;;;;;;;;;;;;12.19;54.10;94436.03;5088958;28;20402;-84
2023/11/05 05:58:57;;;;;;;;;;;;;;;12.26;53.52;94439.44;5097194;28;19924;-84
2023/11/05 06:01:45;;;;;;;;;;;;;;;12.10;54.02;94439.25;5082785;28;19936;-84
2023/11/05 06:04:36;;;;;;;;;;;;;;;11.99;54.02;94433.16;5094394;28;19928;-83
2023/11/05 06:07:25;;;;;;;;;;;;;;;11.90;54.51;94436.34;5064916;28;19925;-84
2023/11/05 06:10:14;;;;;;;;;;;;;;;11.94;55.00;94441.75;5078073;28;19955;-84
2023/11/05 06:13:02;;;;;;;;;;;;;;;11.88;55.10;94444.13;5092116;28;19969;-83
2023/11/05 06:15:50;;;;;;;;;;;;;;;12.03;54.15;94450.94;5078480;28;19956;-83
2023/11/05 06:18:38;;;;;;;;;;;;;;;11.97;54.61;94449.09;5083021;28;19931;-83
2023/11/05 06:21:27;;;;;;;;;;;;;;;12.06;54.57;94454.81;5078534;28;20373;-83
2023/11/05 06:24:15;;;;;;;;;;;;;;;12.02;53.97;94449.41;5094546;28;19924;-84
2023/11/05 06:27:03;;;;;;;;;;;;;;;12.07;53.63;94454.41;5069216;28;19924;-87
2023/11/05 06:29:55;;;;;;;;;;;;;;;11.98;53.96;94445.19;5083349;28;19924;-86
2023/11/05 06:32:43;;;;;;;;;;;;;;;11.98;54.42;94453.34;5078796;28;19977;-87
2023/11/05 06:35:32;;;;;;;;;;;;;;;12.17;53.69;94458.22;5094767;28;19924;-87
2023/11/05 06:38:21;;;;;;;;;;;;;;;12.23;53.51;94461.25;5076184;28;19931;-86
2023/11/05 06:41:10;;;;;;;;;;;;;;;12.30;53.06;94461.97;5079479;28;20532;-86
2023/11/05 06:43:58;;;;;;;;;;;;;;;12.22;53.68;94465.16;5080066;28;19924;-87
2023/11/05 06:46:47;;;;;;;;;;;;;;;12.24;53.29;94468.22;5071126;28;20398;-86
2023/11/05 06:49:36;;;;;;;;;;;;;;;12.31;52.95;94465.44;5079440;28;19936;-85
2023/11/05 06:52:26;;;;;;;;;;;;;;;12.24;53.44;94460.84;5085430;28;19981;-84
2023/11/05 06:55:17;;;;;;;;;;;;;;;12.40;51.81;94475.84;5070834;28;19963;-83
2023/11/05 06:58:05;;;;;;;;;;;;;;;12.26;52.88;94474.06;5088828;28;20065;-83
2023/11/05 07:00:57;;;;;;;;;;;;;;;12.27;52.96;94481.03;5083300;28;19931;-81
2023/11/05 07:03:45;;;;;;;;;;;;;;;12.36;53.08;94478.63;5083577;28;19924;-88
2023/11/05 07:06:33;;;;;;;;;;;;;;;12.33;52.16;94480.19;5073012;28;19924;-82
2023/11/05 07:09:21;;;;;;;;;;;;;;;12.31;52.72;94476.34;5078663;28;20372;-81
2023/11/05 07:12:11;;;;;;;;;;;;;;;12.46;51.53;94480.41;5086493;28;19950;-83
2023/11/05 07:15:01;;;;;;;;;;;;;;;12.56;52.23;94476.81;5073306;28;23666;-84
2023/11/05 07:17:51;;;;;;;;;;;;;;;12.66;51.53;94477.84;5084804;28;19924;-82
2023/11/05 07:20:39;;;;;;;;;;;;;;;12.67;50.59;94489.53;5091837;28;19932;-85
2023/11/05 07:23:27;;;;;;;;;;;;;;;12.58;51.59;94487.31;5058950;28;19981;-84
2023/11/05 07:26:15;;;;;;;;;;;;;;;12.62;50.18;94500.88;5056779;28;19989;-80
2023/11/05 07:29:05;;;;;;;;;;;;;;;12.52;50.58;94497.88;5071488;28;19940;-79
2023/11/05 07:31:54;;;;;;;;;;;;;;;12.65;51.64;94489.94;5069497;28;20011;-84
2023/11/05 07:34:43;;;;;;;;;;;;;;;12.70;51.73;94492.22;5072558;28;19924;-82
2023/11/05 07:37:31;;;;;;;;;;;;;;;12.67;50.71;94486.78;5068244;28;19925;-82
2023/11/05 07:40:19;;;;;;;;;;;;;;;12.66;50.81;94496.16;5065875;28;19936;-82
2023/11/05 07:43:07;;;;;;;;;;;;;;;12.60;51.23;94501.28;5065266;28;19925;-85
2023/11/05 07:45:57;;;;;;;;;;;;;;;12.83;51.86;94500.59;5068401;28;19932;-83
2023/11/05 07:48:45;;;;;;;;;;;;;;;12.85;51.34;94506.44;5067659;28;19933;-79
2023/11/05 07:51:33;;;;;;;;;;;;;;;12.83;50.89;94495.91;5065332;28;20296;-79
2023/11/05 07:54:21;;;;;;;;;;;;;;;12.92;50.52;94498.16;5071363;28;19925;-79
2023/11/05 07:57:10;;;;;;;;;;;;;;;12.90;50.63;94495.06;5055931;28;19932;-78
2023/11/05 07:59:58;;;;;;;;;;;;;;;13.01;50.53;94495.72;5069081;28;20011;-78
2023/11/05 08:02:51;;;;;;;;;;;;;;;12.98;50.25;94493.78;5048204;28;19924;-80
2023/11/05 08:05:43;;;;;;;;;;;;;;;12.96;50.18;94496.16;5072549;28;20022;-81
2023/11/05 08:08:31;;;;;;;;;;;;;;;12.97;50.70;94494.22;5070627;28;19925;-82
2023/11/05 08:11:19;;;;;;;;;;;;;;;12.95;51.05;94491.91;5067476;28;20061;-78
2023/11/05 08:14:07;;;;;;;;;;;;;;;13.02;51.00;94493.75;5055256;28;20497;-77
2023/11/05 08:16:55;;;;;;;;;;;;;;;13.05;50.45;94510.06;5070206;28;19924;-77
2023/11/05 08:19:44;;;;;;;;;;;;;;;13.07;50.68;94515.88;5055616;28;20026;-77
2023/11/05 08:22:33;;;;;;;;;;;;;;;13.07;50.42;94510.41;5059719;28;19935;-79
2023/11/05 08:25:22;;;;;;;;;;;;;;;13.08;49.87;94511.19;5095209;28;19924;-78
2023/11/05 08:28:11;;;;;;;;;;;;;;;13.02;50.57;94516.31;5087508;28;20383;-77
2023/11/05 08:31:10;;;;;;;;;;;;;;;12.97;51.29;94516.78;5082546;28;19932;-77
2023/11/05 08:33:58;;;;;;;;;;;;;;;12.92;51.74;94519.94;5085459;28;19924;-77
2023/11/05 08:36:48;;;;;;;;;;;;;;;12.93;51.45;94529.66;5090781;28;19931;-78
2023/11/05 08:39:36;;;;;;;;;;;;;;;13.01;51.49;94525.69;5087233;28;20435;-78
2023/11/05 08:42:24;;;;;;;;;;;;;;;13.03;52.12;94523.31;5084643;28;19947;-77
2023/11/05 08:45:16;;;;;;;;;;;;;;;12.98;51.73;94523.75;5078288;28;20558;-79
2023/11/05 08:48:04;;;;;;;;;;;;;;;13.01;52.15;94536.59;5086185;28;19936;-78
2023/11/05 08:50:57;;;;;;;;;;;;;;;12.86;52.05;94537.94;5093938;28;20029;-80
2023/11/05 08:53:46;;;;;;;;;;;;;;;12.66;52.12;94528.84;5094618;28;19946;-81
2023/11/05 08:56:34;;;;;;;;;;;;;;;12.81;52.50;94535.66;5093117;28;19931;-78
2023/11/05 08:59:22;;;;;;;;;;;;;;;12.89;52.84;94537.13;5090409;28;19928;-80
2023/11/05 09:02:10;;;;;;;;;;;;;;;12.84;52.42;94540.31;5086097;28;19924;-78
2023/11/05 09:05:00;;;;;;;;;;;;;;;12.83;53.24;94550.41;5088285;28;19928;-77
2023/11/05 09:07:48;;;;;;;;;;;;;;;12.97;52.35;94544.03;5092872;28;19930;-78
2023/11/05 09:10:38;;;;;;;;;;;;;;;12.87;52.76;94544.91;5072516;28;19932;-77
2023/11/05 09:13:27;;;;;;;;;;;;;;;12.81;53.41;94557.44;5071448;28;19924;-76
2023/11/05 09:16:15;;;;;;;;;;;;;;;12.91;54.60;94562.00;5089616;28;19928;-77
2023/11/05 09:19:04;;;;;;;;;;;;;;;12.85;54.16;94561.69;5091601;28;19924;-77
2023/11/05 09:21:53;;;;;;;;;;;;;;;12.90;54.33;94560.47;5067445;28;19928;-77
2023/11/05 09:24:41;;;;;;;;;;;;;;;12.74;54.59;94571.16;5089965;28;19944;-78
2023/11/05 09:27:31;;;;;;;;;;;;;;;12.71;55.09;94563.78;5088127;28;19932;-78
2023/11/05 09:30:21;;;;;;;;;;;;;;;12.87;55.60;94566.72;5071397;28;20269;-78
2023/11/05 09:33:09;;;;;;;;;;;;;;;12.87;54.94;94560.50;5072024;28;19947;-78
2023/11/05 09:35:57;;;;;;;;;;;;;;;12.88;54.73;94565.53;5089637;28;19924;-78
2023/11/05 09:38:45;;;;;;;;;;;;;;;12.96;54.00;94569.72;5095377;28;19984;-77
2023/11/05 09:41:36;;;;;;;;;;;;;;;13.02;53.49;94575.50;5088444;28;19961;-77
2023/11/05 09:44:25;;;;;;;;;;;;;;;12.97;53.66;94582.16;5089411;28;19932;-77
2023/11/05 09:47:13;;;;;;;;;;;;;;;13.02;53.58;94589.13;5092577;28;19986;-78
2023/11/05 09:50:03;;;;;;;;;;;;;;;13.01;53.93;94599.25;5078661;28;19947;-77
2023/11/05 09:52:54;;;;;;;;;;;;;;;13.09;53.21;94606.16;5076585;28;19924;-77
2023/11/05 09:55:43;;;;;;;;;;;;;;;13.08;53.12;94610.06;5091797;28;19928;-78
2023/11/05 09:58:31;;;;;;;;;;;;;;;13.16;53.77;94610.00;5060954;28;19928;-77
2023/11/05 10:01:21;;;;;;;;;;;;;;;13.16;55.85;94615.44;5086688;28;19958;-78
2023/11/05 10:04:11;;;;;;;;;;;;;;;13.17;57.56;94630.63;5081498;28;19931;-78
2023/11/05 10:06:59;;;;;;;;;;;;;;;13.16;55.06;94648.16;5084210;28;20022;-78
2023/11/05 10:09:47;;;;;;;;;;;;;;;13.20;55.20;94643.41;5091615;28;19931;-77
2023/11/05 10:12:35;;;;;;;;;;;;;;;13.26;55.72;94658.16;5091548;28;19924;-78
2023/11/05 10:15:24;;;;;;;;;;;;;;;13.29;55.85;94669.03;5087580;28;20003;-78
2023/11/05 10:18:16;;;;;;;;;;;;;;;13.35;55.75;94663.91;5071969;28;19932;-78
2023/11/05 10:21:05;;;;;;;;;;;;;;;13.32;57.10;94667.47;5087310;28;19924;-85
2023/11/05 10:23:54;;;;;;;;;;;;;;;13.27;56.97;94678.81;5076693;28;19924;-79
2023/11/05 10:26:42;;;;;;;;;;;;;;;13.30;56.59;94680.72;5091185;28;20041;-81
2023/11/05 10:29:30;;;;;;;;;;;;;;;13.29;56.98;94690.06;5087451;28;19967;-77
2023/11/05 10:32:18;;;;;;;;;;;;;;;13.21;57.15;94683.13;5084091;28;20084;-77
2023/11/05 10:35:11;;;;;;;;;;;;;;;13.20;57.66;94682.34;5066528;28;19931;-77
2023/11/05 10:37:59;;;;;;;;;;;;;;;13.13;57.04;94687.09;5088513;28;20371;-78
2023/11/05 10:40:48;;;;;;;;;;;;;;;13.26;57.70;94696.31;5086358;28;19924;-78
2023/11/05 10:43:36;;;;;;;;;;;;;;;13.33;57.77;94694.31;5088926;28;19924;-78
2023/11/05 10:46:24;;;;;;;;;;;;;;;13.45;56.77;94695.72;5085504;28;20017;-79
2023/11/05 10:49:13;;;;;;;;;;;;;;;13.56;57.06;94693.63;5082121;28;19961;-79
2023/11/05 10:52:03;;;;;;;;;;;;;;;13.63;56.33;94690.84;5090122;28;20344;-84
2023/11/05 10:55:03;;;;;;;;;;;;;;;13.59;55.22;94702.97;5074092;28;19973;-77
2023/11/05 10:57:51;;;;;;;;;;;;;;;13.68;55.61;94705.19;5087446;28;20014;-77
2023/11/05 11:00:46;;;;;;;;;;;;;;;13.72;55.34;94709.41;5068013;28;19959;-77
2023/11/05 11:03:34;;;;;;;;;;;;;;;13.71;53.84;94710.59;5088376;28;19930;-78
2023/11/05 11:06:22;;;;;;;;;;;;;;;13.71;54.07;94728.94;5081555;28;19936;-78
2023/11/05 11:09:22;;;;;;;;;;;;;;;13.73;53.90;94726.56;5066445;28;19924;-76
2023/11/05 11:12:26;;;;;;;;;;;;;;;13.70;54.25;94757.41;5085256;28;20001;-78
2023/11/05 11:15:32;;;;;;;;;;;;;;;13.66;53.71;94745.75;5082066;28;19924;-80
2023/11/05 11:18:22;;;;;;;;;;;;;;;13.60;52.75;94754.38;5071675;28;19967;-78
2023/11/05 11:21:10;;;;;;;;;;;;;;;13.56;53.18;94767.28;5062494;28;19924;-84
2023/11/05 11:24:03;;;;;;;;;;;;;;;13.54;53.32;94775.09;5063702;28;19924;-77
2023/11/05 11:27:00;;;;;;;;;;;;;;;13.61;53.20;94757.88;5081072;28;20287;-77
2023/11/05 11:29:53;;;;;;;;;;;;;;;13.61;53.52;94783.19;5074811;28;19924;-77
2023/11/05 11:32:41;;;;;;;;;;;;;;;13.58;53.95;94781.31;5079159;28;19931;-78
2023/11/05 11:35:29;;;;;;;;;;;;;;;13.57;55.82;94808.97;5083162;28;19932;-78
2023/11/05 11:38:18;;;;;;;;;;;;;;;13.51;55.45;94816.81;5063946;28;19924;-78
2023/11/05 11:41:06;;;;;;;;;;;;;;;13.48;56.31;94811.41;5075925;28;20295;-78
2023/11/05 11:43:56;;;;;;;;;;;;;;;13.52;56.27;94809.41;5090825;28;19924;-79
2023/11/05 11:46:44;;;;;;;;;;;;;;;13.54;56.02;94807.84;5089534;28;20400;-83
2023/11/05 11:49:33;;;;;;;;;;;;;;;13.47;56.11;94826.97;5071423;28;19928;-81
2023/11/05 11:52:21;;;;;;;;;;;;;;;13.40;56.37;94821.59;5091209;28;20379;-79
2023/11/05 11:55:09;;;;;;;;;;;;;;;13.45;56.51;94847.66;5065405;28;19963;-78
2023/11/05 11:57:58;;;;;;;;;;;;;;;13.44;56.96;94849.63;5085730;28;20028;-81
2023/11/05 12:00:47;;;;;;;;;;;;;;;13.42;57.02;94862.88;5075437;28;19997;-83
2023/11/05 12:03:35;;;;;;;;;;;;;;;13.30;56.57;94838.84;5084092;28;20015;-85
2023/11/05 12:06:25;;;;;;;;;;;;;;;13.26;56.83;94849.00;5076919;28;19935;-85
2023/11/05 12:09:19;;;;;;;;;;;;;;;13.36;57.52;94870.72;5088097;28;19924;-83
2023/11/05 12:12:07;;;;;;;;;;;;;;;13.35;56.18;94862.94;5070364;28;20028;-78
2023/11/05 12:14:55;;;;;;;;;;;;;;;13.41;55.92;94853.13;5088048;28;19931;-79
2023/11/05 12:17:45;;;;;;;;;;;;;;;13.41;56.56;94847.69;5092827;28;19963;-78
2023/11/05 12:20:33;;;;;;;;;;;;;;;13.52;56.47;94864.72;5091597;28;19928;-81
2023/11/05 12:23:22;;;;;;;;;;;;;;;13.70;56.30;94861.06;5090061;28;20017;-77
2023/11/05 12:26:10;;;;;;;;;;;;;;;13.75;55.38;94864.13;5076626;28;19924;-77
2023/11/05 12:28:58;;;;;;;;;;;;;;;13.71;55.67;94877.03;5092218;28;20444;-77
2023/11/05 12:31:47;;;;;;;;;;;;;;;13.69;55.55;94886.78;5077882;28;19924;-77
2023/11/05 12:34:36;;;;;;;;;;;;;;;13.68;56.23;94899.63;5089371;28;20390;-77
2023/11/05 12:37:24;;;;;;;;;;;;;;;13.72;55.93;94905.06;5093687;28;19935;-77
2023/11/05 12:40:14;;;;;;;;;;;;;;;13.77;56.24;94912.81;5093791;28;20608;-77
2023/11/05 12:43:02;;;;;;;;;;;;;;;13.72;56.12;94924.16;5093958;28;19924;-77
2023/11/05 12:45:55;;;;;;;;;;;;;;;13.71;56.30;94919.91;5073330;28;19931;-77
2023/11/05 12:48:43;;;;;;;;;;;;;;;13.71;55.21;94923.41;5069694;28;19972;-76
2023/11/05 12:51:32;;;;;;;;;;;;;;;13.69;54.72;94924.97;5090111;28;20379;-76
2023/11/05 12:54:21;;;;;;;;;;;;;;;13.55;55.54;94914.97;5087216;28;19925;-75
2023/11/05 12:57:09;;;;;;;;;;;;;;;13.49;55.38;94917.38;5088895;28;20441;-76
2023/11/05 12:59:59;;;;;;;;;;;;;;;13.41;56.11;94934.19;5089989;28;19931;-77
2023/11/05 13:02:50;;;;;;;;;;;;;;;13.38;57.14;94943.16;5062990;28;19925;-77
2023/11/05 13:05:38;;;;;;;;;;;;;;;13.37;56.35;94975.13;5092511;28;19924;-76
2023/11/05 13:08:28;;;;;;;;;;;;;;;13.26;56.32;94958.84;5090911;28;19932;-76
2023/11/05 13:11:17;;;;;;;;;;;;;;;13.30;57.17;94942.44;5091063;28;19995;-78
2023/11/05 13:14:06;;;;;;;;;;;;;;;13.23;56.24;94953.41;5088299;28;19967;-79
2023/11/05 13:16:54;;;;;;;;;;;;;;;13.23;56.49;94964.31;5073678;28;19925;-77
2023/11/05 13:19:42;;;;;;;;;;;;;;;13.20;57.28;94978.69;5081747;28;20280;-78
2023/11/05 13:22:31;;;;;;;;;;;;;;;13.28;57.34;94977.50;5087662;28;19930;-77
2023/11/05 13:25:20;;;;;;;;;;;;;;;13.37;56.47;94986.03;5068020;28;20000;-77
2023/11/05 13:28:09;;;;;;;;;;;;;;;13.37;56.39;95007.84;5072091;28;20358;-78
2023/11/05 13:30:57;;;;;;;;;;;;;;;13.28;56.34;94999.31;5070367;28;19959;-76
2023/11/05 13:33:45;;;;;;;;;;;;;;;13.26;56.58;95005.19;5077337;28;19924;-80
2023/11/05 13:36:34;;;;;;;;;;;;;;;13.20;56.60;95003.22;5080801;28;19936;-77
2023/11/05 13:39:25;;;;;;;;;;;;;;;13.21;56.82;95015.69;5083202;28;19964;-77
2023/11/05 13:42:15;;;;;;;;;;;;;;;13.22;57.20;95022.72;5083289;28;20441;-77
2023/11/05 13:45:04;;;;;;;;;;;;;;;13.24;56.64;95028.56;5065787;28;20015;-78
2023/11/05 13:47:53;;;;;;;;;;;;;;;13.16;57.30;95033.25;5072609;28;19932;-78
2023/11/05 13:50:42;;;;;;;;;;;;;;;13.15;57.74;95041.81;5073276;28;19925;-78
2023/11/05 13:53:31;;;;;;;;;;;;;;;13.10;58.09;95049.25;5055671;28;19932;-77
2023/11/05 13:56:20;;;;;;;;;;;;;;;13.06;59.21;95043.03;5068549;28;19939;-79
2023/11/05 13:59:10;;;;;;;;;;;;;;;13.13;59.03;95046.88;5084369;28;19968;-80
2023/11/05 14:01:58;;;;;;;;;;;;;;;13.23;59.68;95060.50;5067673;28;19985;-85
2023/11/05 14:04:46;;;;;;;;;;;;;;;13.22;58.44;95050.00;5070443;28;19931;-77
2023/11/05 14:07:36;;;;;;;;;;;;;;;13.22;58.68;95069.06;5083251;28;19932;-78
2023/11/05 14:10:25;;;;;;;;;;;;;;;13.30;58.23;95067.84;5058641;28;19929;-77
2023/11/05 14:13:14;;;;;;;;;;;;;;;13.42;57.85;95072.84;5063167;28;19929;-81
2023/11/05 14:16:04;;;;;;;;;;;;;;;13.43;57.46;95084.56;5077064;28;19925;-76
2023/11/05 14:18:51;;;;;;;;;;;;;;;13.47;57.36;95083.31;5072491;28;19963;-77
2023/11/05 14:21:39;;;;;;;;;;;;;;;13.55;57.99;95090.31;5068973;28;19925;-77
2023/11/05 14:24:28;;;;;;;;;;;;;;;13.59;57.13;95091.06;5080377;28;19924;-77
2023/11/05 14:27:17;;;;;;;;;;;;;;;13.63;57.06;95101.94;5084835;28;19944;-77
2023/11/05 14:30:05;;;;;;;;;;;;;;;13.63;56.72;95100.00;5084872;28;19924;-77
2023/11/05 14:32:55;;;;;;;;;;;;;;;13.66;56.57;95119.47;5084896;28;19924;-77
2023/11/05 14:35:43;;;;;;;;;;;;;;;13.62;56.44;95133.91;5078988;28;20020;-77
2023/11/05 14:38:32;;;;;;;;;;;;;;;13.61;56.51;95137.81;5072141;28;20019;-77
2023/11/05 14:41:24;;;;;;;;;;;;;;;13.64;56.52;95133.53;5088780;28;19936;-77